sensor_id;sensor_type;location;lat;lon;timestamp;temperature;humidity
34873;DHT22;21084;51.098;14.506;2023-03-23T00:01:01;12.70;99.90
34873;DHT22;21084;51.098;14.506;2023-03-23T00:03:28;12.80;99.90
34873;DHT22;21084;51.098;14.506;2023-03-23T00:05:59;12.90;99.90
34873;DHT22;21084;51.098;14.506;2023-03-23T00:08:28;12.90;99.90
34873;DHT22;21084;51.098;14.506;2023-03-23T00:10:55;13.00;99.90
34873;DHT22;21084;51.098;14.506;2023-03-23T00:13:23;13.00;99.90
34873;DHT22;21084;51.098;14.506;2023-03-23T00:15:51;12.90;99.90
34873;DHT22;21084;51.098;14.506;2023-03-23T00:18:19;13.00;99.90
34873;DHT22;21084;51.098;14.506;2023-03-23T00:20:51;13.00;99.90
34873;DHT22;21084;51.098;14.506;2023-03-23T00:23:22;13.00;99.90
34873;DHT22;21084;51.098;14.506;2023-03-23T00:25:51;13.00;99.90
34873;DHT22;21084;51.098;14.506;2023-03-23T00:28:24;13.00;99.90
34873;DHT22;21084;51.098;14.506;2023-03-23T00:30:55;13.10;99.90
34873;DHT22;21084;51.098;14.506;2023-03-23T00:33:24;13.10;99.90
34873;DHT22;21084;51.098;14.506;2023-03-23T00:35:52;13.10;99.90
34873;DHT22;21084;51.098;14.506;2023-03-23T00:38:22;13.10;99.90
34873;DHT22;21084;51.098;14.506;2023-03-23T00:40:50;13.10;99.90
34873;DHT22;21084;51.098;14.506;2023-03-23T00:43:19;13.10;99.90
34873;DHT22;21084;51.098;14.506;2023-03-23T00:45:50;13.10;99.90
34873;DHT22;21084;51.098;14.506;2023-03-23T00:48:19;13.10;99.90
34873;DHT22;21084;51.098;14.506;2023-03-23T00:50:47;13.10;99.90
34873;DHT22;21084;51.098;14.506;2023-03-23T00:53:15;13.00;99.90
34873;DHT22;21084;51.098;14.506;2023-03-23T00:55:45;13.00;99.90
34873;DHT22;21084;51.098;14.506;2023-03-23T00:58:13;13.10;99.90
34873;DHT22;21084;51.098;14.506;2023-03-23T01:00:41;13.10;99.90
34873;DHT22;21084;51.098;14.506;2023-03-23T01:03:09;13.10;99.90
34873;DHT22;21084;51.098;14.506;2023-03-23T01:05:44;13.00;99.90
34873;DHT22;21084;51.098;14.506;2023-03-23T01:08:13;13.00;99.90
34873;DHT22;21084;51.098;14.506;2023-03-23T01:10:43;13.10;99.90
34873;DHT22;21084;51.098;14.506;2023-03-23T01:13:11;13.10;99.90
34873;DHT22;21084;51.098;14.506;2023-03-23T01:15:39;13.20;99.90
34873;DHT22;21084;51.098;14.506;2023-03-23T01:18:07;13.20;99.90
34873;DHT22;21084;51.098;14.506;2023-03-23T01:20:35;13.10;99.90
34873;DHT22;21084;51.098;14.506;2023-03-23T01:23:03;13.00;99.90
34873;DHT22;21084;51.098;14.506;2023-03-23T01:25:34;12.90;99.90
34873;DHT22;21084;51.098;14.506;2023-03-23T01:28:03;13.10;99.90
34873;DHT22;21084;51.098;14.506;2023-03-23T01:30:31;13.20;99.90
34873;DHT22;21084;51.098;14.506;2023-03-23T01:32:59;13.10;99.90
34873;DHT22;21084;51.098;14.506;2023-03-23T01:35:26;13.20;99.90
34873;DHT22;21084;51.098;14.506;2023-03-23T01:37:54;13.20;99.90
34873;DHT22;21084;51.098;14.506;2023-03-23T01:40:22;13.30;99.90
34873;DHT22;21084;51.098;14.506;2023-03-23T01:42:49;13.20;99.90
34873;DHT22;21084;51.098;14.506;2023-03-23T01:45:30;13.20;99.90
34873;DHT22;21084;51.098;14.506;2023-03-23T01:48:09;13.20;99.90
34873;DHT22;21084;51.098;14.506;2023-03-23T01:50:50;13.20;99.90
34873;DHT22;21084;51.098;14.506;2023-03-23T01:53:19;13.20;99.90
34873;DHT22;21084;51.098;14.506;2023-03-23T01:55:49;13.10;99.90
34873;DHT22;21084;51.098;14.506;2023-03-23T01:58:22;13.20;99.90
34873;DHT22;21084;51.098;14.506;2023-03-23T02:00:53;13.10;99.90
34873;DHT22;21084;51.098;14.506;2023-03-23T02:03:21;13.00;99.90
34873;DHT22;21084;51.098;14.506;2023-03-23T02:05:50;13.00;99.90
34873;DHT22;21084;51.098;14.506;2023-03-23T02:08:18;12.90;99.90
34873;DHT22;21084;51.098;14.506;2023-03-23T02:10:45;13.00;99.90
34873;DHT22;21084;51.098;14.506;2023-03-23T02:13:13;12.90;99.90
34873;DHT22;21084;51.098;14.506;2023-03-23T02:15:47;12.80;99.90
34873;DHT22;21084;51.098;14.506;2023-03-23T02:18:27;12.90;99.90
34873;DHT22;21084;51.098;14.506;2023-03-23T02:24:07;13.00;99.90
34873;DHT22;21084;51.098;14.506;2023-03-23T02:26:50;13.00;99.90
34873;DHT22;21084;51.098;14.506;2023-03-23T02:29:42;13.00;99.90
34873;DHT22;21084;51.098;14.506;2023-03-23T02:32:27;13.00;99.90
34873;DHT22;21084;51.098;14.506;2023-03-23T02:35:05;13.10;99.90
34873;DHT22;21084;51.098;14.506;2023-03-23T02:37:37;12.90;99.90
34873;DHT22;21084;51.098;14.506;2023-03-23T02:40:10;12.80;99.90
34873;DHT22;21084;51.098;14.506;2023-03-23T02:42:42;12.70;99.90
34873;DHT22;21084;51.098;14.506;2023-03-23T02:45:11;12.80;99.90
34873;DHT22;21084;51.098;14.506;2023-03-23T02:47:39;12.70;99.90
34873;DHT22;21084;51.098;14.506;2023-03-23T02:50:13;12.80;99.90
34873;DHT22;21084;51.098;14.506;2023-03-23T02:52:46;12.90;99.90
34873;DHT22;21084;51.098;14.506;2023-03-23T02:55:16;12.90;99.90
34873;DHT22;21084;51.098;14.506;2023-03-23T02:57:45;12.80;99.90
34873;DHT22;21084;51.098;14.506;2023-03-23T03:00:15;12.70;99.90
34873;DHT22;21084;51.098;14.506;2023-03-23T03:02:46;12.80;99.90
34873;DHT22;21084;51.098;14.506;2023-03-23T03:05:29;12.70;99.90
34873;DHT22;21084;51.098;14.506;2023-03-23T03:08:07;12.60;99.90
34873;DHT22;21084;51.098;14.506;2023-03-23T03:10:46;12.70;99.90
34873;DHT22;21084;51.098;14.506;2023-03-23T03:13:22;12.70;99.90
34873;DHT22;21084;51.098;14.506;2023-03-23T03:15:56;12.60;99.90
34873;DHT22;21084;51.098;14.506;2023-03-23T03:18:28;12.50;99.90
34873;DHT22;21084;51.098;14.506;2023-03-23T03:21:02;12.60;99.90
34873;DHT22;21084;51.098;14.506;2023-03-23T03:23:32;12.60;99.90
34873;DHT22;21084;51.098;14.506;2023-03-23T03:26:01;12.60;99.90
34873;DHT22;21084;51.098;14.506;2023-03-23T03:28:32;12.60;99.90
34873;DHT22;21084;51.098;14.506;2023-03-23T03:31:01;12.50;99.90
34873;DHT22;21084;51.098;14.506;2023-03-23T03:33:30;12.30;99.90
34873;DHT22;21084;51.098;14.506;2023-03-23T03:36:02;12.30;99.90
34873;DHT22;21084;51.098;14.506;2023-03-23T03:38:40;12.20;99.90
34873;DHT22;21084;51.098;14.506;2023-03-23T03:41:08;12.20;99.90
34873;DHT22;21084;51.098;14.506;2023-03-23T03:43:36;12.20;99.90
34873;DHT22;21084;51.098;14.506;2023-03-23T03:46:03;12.20;99.90
34873;DHT22;21084;51.098;14.506;2023-03-23T03:48:31;12.20;99.90
34873;DHT22;21084;51.098;14.506;2023-03-23T03:50:58;12.20;99.90
34873;DHT22;21084;51.098;14.506;2023-03-23T03:53:28;12.20;99.90
34873;DHT22;21084;51.098;14.506;2023-03-23T03:55:56;12.40;99.90
34873;DHT22;21084;51.098;14.506;2023-03-23T03:58:26;12.40;99.90
34873;DHT22;21084;51.098;14.506;2023-03-23T04:00:58;12.20;99.90
34873;DHT22;21084;51.098;14.506;2023-03-23T04:03:26;12.10;99.90
34873;DHT22;21084;51.098;14.506;2023-03-23T04:05:54;12.10;99.90
34873;DHT22;21084;51.098;14.506;2023-03-23T04:08:22;12.20;99.90
34873;DHT22;21084;51.098;14.506;2023-03-23T04:10:51;12.10;99.90
34873;DHT22;21084;51.098;14.506;2023-03-23T04:13:19;12.10;99.90
34873;DHT22;21084;51.098;14.506;2023-03-23T04:15:47;12.10;99.90
34873;DHT22;21084;51.098;14.506;2023-03-23T04:18:16;12.10;99.90
34873;DHT22;21084;51.098;14.506;2023-03-23T04:20:45;12.10;99.90
34873;DHT22;21084;51.098;14.506;2023-03-23T04:23:15;12.20;99.90
34873;DHT22;21084;51.098;14.506;2023-03-23T04:25:45;12.10;99.90
34873;DHT22;21084;51.098;14.506;2023-03-23T04:28:15;12.00;99.90
34873;DHT22;21084;51.098;14.506;2023-03-23T04:30:44;12.00;99.90
34873;DHT22;21084;51.098;14.506;2023-03-23T04:33:12;12.00;99.90
34873;DHT22;21084;51.098;14.506;2023-03-23T04:35:40;12.00;99.90
34873;DHT22;21084;51.098;14.506;2023-03-23T04:38:09;11.90;99.90
34873;DHT22;21084;51.098;14.506;2023-03-23T04:40:36;11.90;99.90
34873;DHT22;21084;51.098;14.506;2023-03-23T04:43:04;11.90;99.90
34873;DHT22;21084;51.098;14.506;2023-03-23T04:45:34;11.90;99.90
34873;DHT22;21084;51.098;14.506;2023-03-23T04:48:04;12.00;99.90
34873;DHT22;21084;51.098;14.506;2023-03-23T04:50:33;11.90;99.90
34873;DHT22;21084;51.098;14.506;2023-03-23T04:53:02;11.90;99.90
34873;DHT22;21084;51.098;14.506;2023-03-23T04:55:30;11.80;99.90
34873;DHT22;21084;51.098;14.506;2023-03-23T04:58:02;11.70;99.90
34873;DHT22;21084;51.098;14.506;2023-03-23T05:00:29;11.60;99.90
34873;DHT22;21084;51.098;14.506;2023-03-23T05:02:58;11.50;99.90
34873;DHT22;21084;51.098;14.506;2023-03-23T05:05:27;11.60;99.90
34873;DHT22;21084;51.098;14.506;2023-03-23T05:07:56;11.50;99.90
34873;DHT22;21084;51.098;14.506;2023-03-23T05:10:24;11.40;99.90
34873;DHT22;21084;51.098;14.506;2023-03-23T05:12:53;11.40;99.90
34873;DHT22;21084;51.098;14.506;2023-03-23T05:15:21;11.40;99.90
34873;DHT22;21084;51.098;14.506;2023-03-23T05:17:51;11.30;99.90
34873;DHT22;21084;51.098;14.506;2023-03-23T05:20:20;11.30;99.90
34873;DHT22;21084;51.098;14.506;2023-03-23T05:22:48;11.40;99.90
34873;DHT22;21084;51.098;14.506;2023-03-23T05:25:17;11.50;99.90
34873;DHT22;21084;51.098;14.506;2023-03-23T05:27:46;11.60;99.90
34873;DHT22;21084;51.098;14.506;2023-03-23T05:30:19;11.60;99.90
34873;DHT22;21084;51.098;14.506;2023-03-23T05:32:47;11.70;99.90
34873;DHT22;21084;51.098;14.506;2023-03-23T05:35:18;12.00;99.90
34873;DHT22;21084;51.098;14.506;2023-03-23T05:37:47;12.00;99.90
34873;DHT22;21084;51.098;14.506;2023-03-23T05:40:15;12.00;99.90
34873;DHT22;21084;51.098;14.506;2023-03-23T05:42:43;12.00;99.90
34873;DHT22;21084;51.098;14.506;2023-03-23T05:45:11;11.90;99.90
34873;DHT22;21084;51.098;14.506;2023-03-23T05:47:40;11.90;99.90
34873;DHT22;21084;51.098;14.506;2023-03-23T05:50:08;12.00;99.90
34873;DHT22;21084;51.098;14.506;2023-03-23T05:52:37;12.10;99.90
34873;DHT22;21084;51.098;14.506;2023-03-23T05:55:07;12.10;99.90
34873;DHT22;21084;51.098;14.506;2023-03-23T05:57:35;12.20;99.90
34873;DHT22;21084;51.098;14.506;2023-03-23T06:00:03;12.30;99.90
34873;DHT22;21084;51.098;14.506;2023-03-23T06:02:47;12.30;99.90
34873;DHT22;21084;51.098;14.506;2023-03-23T06:05:15;12.30;99.90
34873;DHT22;21084;51.098;14.506;2023-03-23T06:07:42;12.30;99.90
34873;DHT22;21084;51.098;14.506;2023-03-23T06:10:11;12.30;99.90
34873;DHT22;21084;51.098;14.506;2023-03-23T06:12:39;12.40;99.90
34873;DHT22;21084;51.098;14.506;2023-03-23T06:15:08;12.30;99.90
34873;DHT22;21084;51.098;14.506;2023-03-23T06:17:35;12.50;99.90
34873;DHT22;21084;51.098;14.506;2023-03-23T06:20:04;12.60;99.90
34873;DHT22;21084;51.098;14.506;2023-03-23T06:22:36;12.80;99.90
34873;DHT22;21084;51.098;14.506;2023-03-23T06:25:05;12.90;99.90
34873;DHT22;21084;51.098;14.506;2023-03-23T06:27:34;12.90;99.90
34873;DHT22;21084;51.098;14.506;2023-03-23T06:30:02;13.00;99.90
34873;DHT22;21084;51.098;14.506;2023-03-23T06:32:31;13.10;99.90
34873;DHT22;21084;51.098;14.506;2023-03-23T06:34:59;13.20;99.90
34873;DHT22;21084;51.098;14.506;2023-03-23T06:37:27;13.30;99.90
34873;DHT22;21084;51.098;14.506;2023-03-23T06:39:54;13.50;99.90
34873;DHT22;21084;51.098;14.506;2023-03-23T06:42:22;13.60;99.90
34873;DHT22;21084;51.098;14.506;2023-03-23T06:44:52;13.50;99.90
34873;DHT22;21084;51.098;14.506;2023-03-23T06:47:22;13.40;99.90
34873;DHT22;21084;51.098;14.506;2023-03-23T06:49:50;13.30;99.90
34873;DHT22;21084;51.098;14.506;2023-03-23T06:52:17;13.20;99.90
34873;DHT22;21084;51.098;14.506;2023-03-23T06:54:45;13.20;99.90
34873;DHT22;21084;51.098;14.506;2023-03-23T06:57:12;13.30;99.90
34873;DHT22;21084;51.098;14.506;2023-03-23T06:59:40;13.30;99.90
34873;DHT22;21084;51.098;14.506;2023-03-23T07:02:10;13.30;99.90
34873;DHT22;21084;51.098;14.506;2023-03-23T07:04:39;13.30;99.90
34873;DHT22;21084;51.098;14.506;2023-03-23T07:07:08;13.50;99.90
34873;DHT22;21084;51.098;14.506;2023-03-23T07:09:36;13.50;99.90
34873;DHT22;21084;51.098;14.506;2023-03-23T07:12:04;13.40;99.90
34873;DHT22;21084;51.098;14.506;2023-03-23T07:14:32;13.40;99.90
34873;DHT22;21084;51.098;14.506;2023-03-23T07:17:00;13.40;99.90
34873;DHT22;21084;51.098;14.506;2023-03-23T07:19:29;13.40;99.90
34873;DHT22;21084;51.098;14.506;2023-03-23T07:21:57;13.50;99.90
34873;DHT22;21084;51.098;14.506;2023-03-23T07:24:24;13.30;99.90
34873;DHT22;21084;51.098;14.506;2023-03-23T07:26:52;13.40;99.90
34873;DHT22;21084;51.098;14.506;2023-03-23T07:29:19;13.40;99.90
34873;DHT22;21084;51.098;14.506;2023-03-23T07:31:47;13.50;99.90
34873;DHT22;21084;51.098;14.506;2023-03-23T07:34:14;13.80;99.90
34873;DHT22;21084;51.098;14.506;2023-03-23T07:36:43;14.10;99.90
34873;DHT22;21084;51.098;14.506;2023-03-23T07:39:10;14.00;99.90
34873;DHT22;21084;51.098;14.506;2023-03-23T07:41:38;14.00;99.90
34873;DHT22;21084;51.098;14.506;2023-03-23T07:44:06;13.60;99.90
34873;DHT22;21084;51.098;14.506;2023-03-23T07:46:33;13.70;99.90
34873;DHT22;21084;51.098;14.506;2023-03-23T07:49:01;13.70;99.90
34873;DHT22;21084;51.098;14.506;2023-03-23T07:51:31;13.90;99.90
34873;DHT22;21084;51.098;14.506;2023-03-23T07:54:00;13.80;99.90
34873;DHT22;21084;51.098;14.506;2023-03-23T07:56:28;13.70;99.90
34873;DHT22;21084;51.098;14.506;2023-03-23T07:58:56;13.70;99.90
34873;DHT22;21084;51.098;14.506;2023-03-23T08:01:24;14.20;99.90
34873;DHT22;21084;51.098;14.506;2023-03-23T08:03:52;14.40;99.90
34873;DHT22;21084;51.098;14.506;2023-03-23T08:06:20;14.60;99.90
34873;DHT22;21084;51.098;14.506;2023-03-23T08:08:49;14.90;99.90
34873;DHT22;21084;51.098;14.506;2023-03-23T08:11:18;15.10;99.90
34873;DHT22;21084;51.098;14.506;2023-03-23T08:13:46;15.30;99.90
34873;DHT22;21084;51.098;14.506;2023-03-23T08:16:13;15.00;99.90
34873;DHT22;21084;51.098;14.506;2023-03-23T08:18:40;14.80;99.90
34873;DHT22;21084;51.098;14.506;2023-03-23T08:21:08;15.00;99.90
34873;DHT22;21084;51.098;14.506;2023-03-23T08:23:36;14.90;99.90
34873;DHT22;21084;51.098;14.506;2023-03-23T08:26:05;15.30;99.90
34873;DHT22;21084;51.098;14.506;2023-03-23T08:28:34;16.30;99.90
34873;DHT22;21084;51.098;14.506;2023-03-23T08:31:06;16.60;99.90
34873;DHT22;21084;51.098;14.506;2023-03-23T08:33:34;16.10;99.90
34873;DHT22;21084;51.098;14.506;2023-03-23T08:36:01;16.20;99.90
34873;DHT22;21084;51.098;14.506;2023-03-23T08:38:29;16.20;99.90
34873;DHT22;21084;51.098;14.506;2023-03-23T08:40:58;16.10;99.90
34873;DHT22;21084;51.098;14.506;2023-03-23T08:43:26;16.70;99.90
34873;DHT22;21084;51.098;14.506;2023-03-23T08:45:55;16.50;99.90
34873;DHT22;21084;51.098;14.506;2023-03-23T08:48:23;16.80;99.90
34873;DHT22;21084;51.098;14.506;2023-03-23T08:50:51;16.40;99.90
34873;DHT22;21084;51.098;14.506;2023-03-23T08:53:19;15.90;99.90
34873;DHT22;21084;51.098;14.506;2023-03-23T08:55:47;15.60;99.90
34873;DHT22;21084;51.098;14.506;2023-03-23T08:58:15;15.40;99.90
34873;DHT22;21084;51.098;14.506;2023-03-23T09:00:43;15.40;99.90
34873;DHT22;21084;51.098;14.506;2023-03-23T09:03:13;15.40;99.90
34873;DHT22;21084;51.098;14.506;2023-03-23T09:05:41;15.40;99.90
34873;DHT22;21084;51.098;14.506;2023-03-23T09:08:12;15.40;99.90
34873;DHT22;21084;51.098;14.506;2023-03-23T09:10:39;15.30;99.90
34873;DHT22;21084;51.098;14.506;2023-03-23T09:13:07;15.20;99.90
34873;DHT22;21084;51.098;14.506;2023-03-23T09:15:35;15.20;99.90
34873;DHT22;21084;51.098;14.506;2023-03-23T09:18:02;15.10;99.90
34873;DHT22;21084;51.098;14.506;2023-03-23T09:20:32;15.10;99.90
34873;DHT22;21084;51.098;14.506;2023-03-23T09:23:00;15.00;99.90
34873;DHT22;21084;51.098;14.506;2023-03-23T09:25:28;14.90;99.90
34873;DHT22;21084;51.098;14.506;2023-03-23T09:27:57;14.90;99.90
34873;DHT22;21084;51.098;14.506;2023-03-23T09:30:26;14.90;99.90
34873;DHT22;21084;51.098;14.506;2023-03-23T09:32:54;14.90;99.90
34873;DHT22;21084;51.098;14.506;2023-03-23T09:35:22;14.90;99.90
34873;DHT22;21084;51.098;14.506;2023-03-23T09:37:52;14.80;99.90
34873;DHT22;21084;51.098;14.506;2023-03-23T09:40:22;14.70;99.90
34873;DHT22;21084;51.098;14.506;2023-03-23T09:43:13;14.60;99.90
34873;DHT22;21084;51.098;14.506;2023-03-23T09:45:51;14.80;99.90
34873;DHT22;21084;51.098;14.506;2023-03-23T09:48:32;14.90;99.90
34873;DHT22;21084;51.098;14.506;2023-03-23T09:51:04;14.90;99.90
34873;DHT22;21084;51.098;14.506;2023-03-23T09:53:38;15.00;99.90
34873;DHT22;21084;51.098;14.506;2023-03-23T09:56:11;15.00;99.90
34873;DHT22;21084;51.098;14.506;2023-03-23T09:58:45;15.10;99.90
34873;DHT22;21084;51.098;14.506;2023-03-23T10:01:17;15.10;99.90
34873;DHT22;21084;51.098;14.506;2023-03-23T10:04:15;15.10;99.90
34873;DHT22;21084;51.098;14.506;2023-03-23T10:06:46;15.60;99.90
34873;DHT22;21084;51.098;14.506;2023-03-23T10:09:17;15.80;99.90
34873;DHT22;21084;51.098;14.506;2023-03-23T10:11:53;16.00;99.90
34873;DHT22;21084;51.098;14.506;2023-03-23T10:14:29;16.10;99.90
34873;DHT22;21084;51.098;14.506;2023-03-23T10:17:07;16.20;99.90
34873;DHT22;21084;51.098;14.506;2023-03-23T10:19:40;16.10;99.90
34873;DHT22;21084;51.098;14.506;2023-03-23T10:22:11;16.20;99.90
34873;DHT22;21084;51.098;14.506;2023-03-23T10:24:51;16.20;99.90
34873;DHT22;21084;51.098;14.506;2023-03-23T10:27:25;15.90;99.90
34873;DHT22;21084;51.098;14.506;2023-03-23T10:29:58;15.50;99.90
34873;DHT22;21084;51.098;14.506;2023-03-23T10:32:44;15.20;99.90
34873;DHT22;21084;51.098;14.506;2023-03-23T10:35:19;15.20;99.90
34873;DHT22;21084;51.098;14.506;2023-03-23T10:37:50;14.90;99.90
34873;DHT22;21084;51.098;14.506;2023-03-23T10:40:23;14.90;99.90
34873;DHT22;21084;51.098;14.506;2023-03-23T10:42:52;14.80;99.90
34873;DHT22;21084;51.098;14.506;2023-03-23T10:45:22;14.70;99.90
34873;DHT22;21084;51.098;14.506;2023-03-23T10:47:54;14.70;99.90
34873;DHT22;21084;51.098;14.506;2023-03-23T10:50:27;14.70;99.90
34873;DHT22;21084;51.098;14.506;2023-03-23T10:52:57;14.70;99.90
34873;DHT22;21084;51.098;14.506;2023-03-23T10:55:35;14.80;99.90
34873;DHT22;21084;51.098;14.506;2023-03-23T10:58:05;14.80;99.90
34873;DHT22;21084;51.098;14.506;2023-03-23T11:00:40;14.70;99.90
34873;DHT22;21084;51.098;14.506;2023-03-23T11:03:24;14.80;99.90
34873;DHT22;21084;51.098;14.506;2023-03-23T11:05:56;14.90;99.90
34873;DHT22;21084;51.098;14.506;2023-03-23T11:08:26;15.00;99.90
34873;DHT22;21084;51.098;14.506;2023-03-23T11:10:58;15.10;99.90
34873;DHT22;21084;51.098;14.506;2023-03-23T11:13:31;15.10;99.90
34873;DHT22;21084;51.098;14.506;2023-03-23T11:16:00;15.10;99.90
34873;DHT22;21084;51.098;14.506;2023-03-23T11:18:36;15.10;99.90
34873;DHT22;21084;51.098;14.506;2023-03-23T11:21:05;14.90;99.90
34873;DHT22;21084;51.098;14.506;2023-03-23T11:23:37;14.90;99.90
34873;DHT22;21084;51.098;14.506;2023-03-23T11:26:14;14.90;99.90
34873;DHT22;21084;51.098;14.506;2023-03-23T11:28:46;15.20;99.90
34873;DHT22;21084;51.098;14.506;2023-03-23T11:31:16;15.10;99.90
34873;DHT22;21084;51.098;14.506;2023-03-23T11:33:52;15.20;99.90
34873;DHT22;21084;51.098;14.506;2023-03-23T11:36:20;15.50;99.90
34873;DHT22;21084;51.098;14.506;2023-03-23T11:38:53;15.10;99.90
34873;DHT22;21084;51.098;14.506;2023-03-23T11:41:29;15.20;99.90
34873;DHT22;21084;51.098;14.506;2023-03-23T11:43:57;15.10;99.90
34873;DHT22;21084;51.098;14.506;2023-03-23T11:46:35;15.20;99.90
34873;DHT22;21084;51.098;14.506;2023-03-23T11:49:10;15.20;99.90
34873;DHT22;21084;51.098;14.506;2023-03-23T11:51:44;15.00;99.90
34873;DHT22;21084;51.098;14.506;2023-03-23T11:54:19;15.10;99.90
34873;DHT22;21084;51.098;14.506;2023-03-23T11:56:49;14.90;99.90
34873;DHT22;21084;51.098;14.506;2023-03-23T11:59:26;15.10;99.90
34873;DHT22;21084;51.098;14.506;2023-03-23T12:01:57;15.20;99.90
34873;DHT22;21084;51.098;14.506;2023-03-23T12:04:38;15.10;99.90
34873;DHT22;21084;51.098;14.506;2023-03-23T12:07:18;15.10;99.90
34873;DHT22;21084;51.098;14.506;2023-03-23T12:09:53;14.80;99.90
34873;DHT22;21084;51.098;14.506;2023-03-23T12:12:29;14.70;99.90
34873;DHT22;21084;51.098;14.506;2023-03-23T12:15:04;14.90;99.90
34873;DHT22;21084;51.098;14.506;2023-03-23T12:17:41;15.00;99.90
34873;DHT22;21084;51.098;14.506;2023-03-23T12:20:19;15.10;99.90
34873;DHT22;21084;51.098;14.506;2023-03-23T12:22:57;15.00;99.90
34873;DHT22;21084;51.098;14.506;2023-03-23T12:25:56;15.00;99.90
34873;DHT22;21084;51.098;14.506;2023-03-23T12:28:37;14.90;99.90
34873;DHT22;21084;51.098;14.506;2023-03-23T12:31:13;14.70;99.90
34873;DHT22;21084;51.098;14.506;2023-03-23T12:33:53;14.50;99.90
34873;DHT22;21084;51.098;14.506;2023-03-23T12:36:38;14.50;99.90
34873;DHT22;21084;51.098;14.506;2023-03-23T12:42:05;14.30;99.90
34873;DHT22;21084;51.098;14.506;2023-03-23T12:44:40;14.30;99.90
34873;DHT22;21084;51.098;14.506;2023-03-23T12:47:34;14.30;99.90
34873;DHT22;21084;51.098;14.506;2023-03-23T12:50:05;14.30;99.90
34873;DHT22;21084;51.098;14.506;2023-03-23T12:52:40;14.50;99.90
34873;DHT22;21084;51.098;14.506;2023-03-23T12:55:17;14.60;99.90
34873;DHT22;21084;51.098;14.506;2023-03-23T12:57:48;14.40;99.90
34873;DHT22;21084;51.098;14.506;2023-03-23T13:00:21;14.40;99.90
34873;DHT22;21084;51.098;14.506;2023-03-23T13:02:55;14.20;99.90
34873;DHT22;21084;51.098;14.506;2023-03-23T13:05:35;14.10;99.90
34873;DHT22;21084;51.098;14.506;2023-03-23T13:08:09;13.90;99.90
34873;DHT22;21084;51.098;14.506;2023-03-23T13:10:40;14.00;99.90
34873;DHT22;21084;51.098;14.506;2023-03-23T13:13:14;13.80;99.90
34873;DHT22;21084;51.098;14.506;2023-03-23T13:15:53;13.70;99.90
34873;DHT22;21084;51.098;14.506;2023-03-23T13:18:31;13.90;99.90
34873;DHT22;21084;51.098;14.506;2023-03-23T13:21:09;13.90;99.90
34873;DHT22;21084;51.098;14.506;2023-03-23T13:23:41;13.80;99.90
34873;DHT22;21084;51.098;14.506;2023-03-23T13:26:12;13.90;99.90
34873;DHT22;21084;51.098;14.506;2023-03-23T13:28:55;14.10;99.90
34873;DHT22;21084;51.098;14.506;2023-03-23T13:31:26;14.20;99.90
34873;DHT22;21084;51.098;14.506;2023-03-23T13:34:05;14.40;99.90
34873;DHT22;21084;51.098;14.506;2023-03-23T13:36:35;14.40;99.90
34873;DHT22;21084;51.098;14.506;2023-03-23T13:39:05;14.70;99.90
34873;DHT22;21084;51.098;14.506;2023-03-23T13:41:46;14.80;99.90
34873;DHT22;21084;51.098;14.506;2023-03-23T13:44:17;15.20;99.90
34873;DHT22;21084;51.098;14.506;2023-03-23T13:47:04;15.80;99.90
34873;DHT22;21084;51.098;14.506;2023-03-23T13:49:32;16.50;99.90
34873;DHT22;21084;51.098;14.506;2023-03-23T13:52:23;17.20;99.90
34873;DHT22;21084;51.098;14.506;2023-03-23T13:54:52;17.90;99.90
34873;DHT22;21084;51.098;14.506;2023-03-23T13:57:38;17.70;99.90
34873;DHT22;21084;51.098;14.506;2023-03-23T14:00:36;18.60;99.90
34873;DHT22;21084;51.098;14.506;2023-03-23T14:03:12;19.30;99.90
34873;DHT22;21084;51.098;14.506;2023-03-23T14:05:42;19.70;99.90
34873;DHT22;21084;51.098;14.506;2023-03-23T14:08:20;19.50;99.90
34873;DHT22;21084;51.098;14.506;2023-03-23T14:10:54;18.50;99.90
34873;DHT22;21084;51.098;14.506;2023-03-23T14:13:32;17.60;99.90
34873;DHT22;21084;51.098;14.506;2023-03-23T14:16:02;16.90;99.90
34873;DHT22;21084;51.098;14.506;2023-03-23T14:18:36;16.90;99.90
34873;DHT22;21084;51.098;14.506;2023-03-23T14:21:05;16.70;99.90
34873;DHT22;21084;51.098;14.506;2023-03-23T14:23:33;16.80;99.90
34873;DHT22;21084;51.098;14.506;2023-03-23T14:26:03;17.00;99.90
34873;DHT22;21084;51.098;14.506;2023-03-23T14:28:37;17.10;99.90
34873;DHT22;21084;51.098;14.506;2023-03-23T14:31:14;17.40;99.90
34873;DHT22;21084;51.098;14.506;2023-03-23T14:33:44;17.80;99.90
34873;DHT22;21084;51.098;14.506;2023-03-23T14:36:14;17.30;99.90
34873;DHT22;21084;51.098;14.506;2023-03-23T14:38:42;16.60;99.90
34873;DHT22;21084;51.098;14.506;2023-03-23T14:41:11;16.60;99.90
34873;DHT22;21084;51.098;14.506;2023-03-23T14:43:40;16.80;99.90
34873;DHT22;21084;51.098;14.506;2023-03-23T14:46:09;16.60;99.90
34873;DHT22;21084;51.098;14.506;2023-03-23T14:48:38;16.40;99.90
34873;DHT22;21084;51.098;14.506;2023-03-23T14:51:17;16.40;99.90
34873;DHT22;21084;51.098;14.506;2023-03-23T14:53:45;16.10;99.90
34873;DHT22;21084;51.098;14.506;2023-03-23T14:56:15;15.90;99.90
34873;DHT22;21084;51.098;14.506;2023-03-23T14:58:44;15.90;99.90
34873;DHT22;21084;51.098;14.506;2023-03-23T15:01:14;16.00;99.90
34873;DHT22;21084;51.098;14.506;2023-03-23T15:03:45;15.70;99.90
34873;DHT22;21084;51.098;14.506;2023-03-23T15:06:17;15.50;99.90
34873;DHT22;21084;51.098;14.506;2023-03-23T15:08:47;15.40;99.90
34873;DHT22;21084;51.098;14.506;2023-03-23T15:11:23;15.50;99.90
34873;DHT22;21084;51.098;14.506;2023-03-23T15:13:54;15.50;99.90
34873;DHT22;21084;51.098;14.506;2023-03-23T15:16:25;15.30;99.90
34873;DHT22;21084;51.098;14.506;2023-03-23T15:18:55;15.20;99.90
34873;DHT22;21084;51.098;14.506;2023-03-23T15:21:28;15.10;99.90
34873;DHT22;21084;51.098;14.506;2023-03-23T15:23:56;15.20;99.90
34873;DHT22;21084;51.098;14.506;2023-03-23T15:26:32;15.10;99.90
34873;DHT22;21084;51.098;14.506;2023-03-23T15:29:14;15.10;99.90
34873;DHT22;21084;51.098;14.506;2023-03-23T15:31:44;15.10;99.90
34873;DHT22;21084;51.098;14.506;2023-03-23T15:34:20;15.10;99.90
34873;DHT22;21084;51.098;14.506;2023-03-23T15:36:58;15.10;99.90
34873;DHT22;21084;51.098;14.506;2023-03-23T15:39:26;15.10;99.90
34873;DHT22;21084;51.098;14.506;2023-03-23T15:41:54;14.90;99.90
34873;DHT22;21084;51.098;14.506;2023-03-23T15:44:25;14.90;99.90
34873;DHT22;21084;51.098;14.506;2023-03-23T15:47:02;14.90;99.90